sensor_id;sensor_type;location;lat;lon;timestamp;temperature;humidity
69324;DHT22;56470;47.350;8.718;2023-09-12T00:00:44;23.94;65.14
69324;DHT22;56470;47.350;8.718;2023-09-12T00:03:09;23.98;64.99
69324;DHT22;56470;47.350;8.718;2023-09-12T00:05:34;23.94;65.00
69324;DHT22;56470;47.350;8.718;2023-09-12T00:08:00;23.91;65.08
69324;DHT22;56470;47.350;8.718;2023-09-12T00:10:25;23.92;65.09
69324;DHT22;56470;47.350;8.718;2023-09-12T00:12:50;23.94;65.03
69324;DHT22;56470;47.350;8.718;2023-09-12T00:15:16;23.95;65.02
69324;DHT22;56470;47.350;8.718;2023-09-12T00:17:41;23.97;64.87
69324;DHT22;56470;47.350;8.718;2023-09-12T00:20:07;23.95;64.96
69324;DHT22;56470;47.350;8.718;2023-09-12T00:22:33;23.98;64.81
69324;DHT22;56470;47.350;8.718;2023-09-12T00:24:59;23.97;64.79
69324;DHT22;56470;47.350;8.718;2023-09-12T00:27:24;23.94;64.64
69324;DHT22;56470;47.350;8.718;2023-09-12T00:29:50;23.88;64.75
69324;DHT22;56470;47.350;8.718;2023-09-12T00:32:15;23.82;64.86
69324;DHT22;56470;47.350;8.718;2023-09-12T00:34:40;23.78;64.94
69324;DHT22;56470;47.350;8.718;2023-09-12T00:37:06;23.77;64.86
69324;DHT22;56470;47.350;8.718;2023-09-12T00:39:31;23.71;64.95
69324;DHT22;56470;47.350;8.718;2023-09-12T00:41:56;23.67;64.89
69324;DHT22;56470;47.350;8.718;2023-09-12T00:44:22;23.64;65.07
69324;DHT22;56470;47.350;8.718;2023-09-12T00:46:49;23.60;65.20
69324;DHT22;56470;47.350;8.718;2023-09-12T00:49:15;23.57;65.19
69324;DHT22;56470;47.350;8.718;2023-09-12T00:51:42;23.58;65.26
69324;DHT22;56470;47.350;8.718;2023-09-12T00:54:09;23.63;65.11
69324;DHT22;56470;47.350;8.718;2023-09-12T00:56:34;23.56;64.94
69324;DHT22;56470;47.350;8.718;2023-09-12T00:59:00;23.45;65.14
69324;DHT22;56470;47.350;8.718;2023-09-12T01:01:26;23.33;65.33
69324;DHT22;56470;47.350;8.718;2023-09-12T01:03:52;23.24;65.46
69324;DHT22;56470;47.350;8.718;2023-09-12T01:06:24;23.22;65.62
69324;DHT22;56470;47.350;8.718;2023-09-12T01:08:53;23.15;65.52
69324;DHT22;56470;47.350;8.718;2023-09-12T01:11:20;23.16;65.57
69324;DHT22;56470;47.350;8.718;2023-09-12T01:13:45;23.09;65.55
69324;DHT22;56470;47.350;8.718;2023-09-12T01:16:10;23.06;65.68
69324;DHT22;56470;47.350;8.718;2023-09-12T01:18:36;23.01;65.80
69324;DHT22;56470;47.350;8.718;2023-09-12T01:21:31;22.95;66.35
69324;DHT22;56470;47.350;8.718;2023-09-12T01:25:06;22.92;66.49
69324;DHT22;56470;47.350;8.718;2023-09-12T01:27:22;22.94;66.23
69324;DHT22;56470;47.350;8.718;2023-09-12T01:29:51;22.88;65.93
69324;DHT22;56470;47.350;8.718;2023-09-12T01:32:19;22.83;66.11
69324;DHT22;56470;47.350;8.718;2023-09-12T01:34:45;22.77;66.12
69324;DHT22;56470;47.350;8.718;2023-09-12T01:37:10;22.75;66.31
69324;DHT22;56470;47.350;8.718;2023-09-12T01:39:36;22.72;66.22
69324;DHT22;56470;47.350;8.718;2023-09-12T01:42:01;22.70;66.46
69324;DHT22;56470;47.350;8.718;2023-09-12T01:44:28;22.70;66.51
69324;DHT22;56470;47.350;8.718;2023-09-12T01:46:54;22.70;66.43
69324;DHT22;56470;47.350;8.718;2023-09-12T01:49:22;22.71;66.53
69324;DHT22;56470;47.350;8.718;2023-09-12T01:51:49;22.71;66.56
69324;DHT22;56470;47.350;8.718;2023-09-12T01:54:15;22.72;66.65
69324;DHT22;56470;47.350;8.718;2023-09-12T01:56:42;22.74;66.67
69324;DHT22;56470;47.350;8.718;2023-09-12T01:59:08;22.72;66.61
69324;DHT22;56470;47.350;8.718;2023-09-12T02:01:36;22.74;66.59
69324;DHT22;56470;47.350;8.718;2023-09-12T02:04:02;22.68;66.66
69324;DHT22;56470;47.350;8.718;2023-09-12T02:06:27;22.75;66.78
69324;DHT22;56470;47.350;8.718;2023-09-12T02:08:52;22.84;66.58
69324;DHT22;56470;47.350;8.718;2023-09-12T02:11:18;22.83;66.41
69324;DHT22;56470;47.350;8.718;2023-09-12T02:13:43;22.85;66.42
69324;DHT22;56470;47.350;8.718;2023-09-12T02:16:08;22.81;66.32
69324;DHT22;56470;47.350;8.718;2023-09-12T02:18:33;22.81;66.28
69324;DHT22;56470;47.350;8.718;2023-09-12T02:20:59;22.84;66.33
69324;DHT22;56470;47.350;8.718;2023-09-12T02:23:24;22.85;66.18
69324;DHT22;56470;47.350;8.718;2023-09-12T02:25:49;22.85;66.08
69324;DHT22;56470;47.350;8.718;2023-09-12T02:28:15;22.83;65.96
69324;DHT22;56470;47.350;8.718;2023-09-12T02:30:40;22.72;66.02
69324;DHT22;56470;47.350;8.718;2023-09-12T02:33:05;22.67;66.17
69324;DHT22;56470;47.350;8.718;2023-09-12T02:35:31;22.60;66.17
69324;DHT22;56470;47.350;8.718;2023-09-12T02:37:56;22.49;66.34
69324;DHT22;56470;47.350;8.718;2023-09-12T02:40:21;22.37;66.67
69324;DHT22;56470;47.350;8.718;2023-09-12T02:42:47;22.32;66.98
69324;DHT22;56470;47.350;8.718;2023-09-12T02:45:12;22.29;66.98
69324;DHT22;56470;47.350;8.718;2023-09-12T02:47:37;22.25;67.21
69324;DHT22;56470;47.350;8.718;2023-09-12T02:50:03;22.28;67.30
69324;DHT22;56470;47.350;8.718;2023-09-12T02:52:28;22.30;67.15
69324;DHT22;56470;47.350;8.718;2023-09-12T02:54:53;22.33;67.16
69324;DHT22;56470;47.350;8.718;2023-09-12T02:57:19;22.33;66.99
69324;DHT22;56470;47.350;8.718;2023-09-12T02:59:44;22.30;67.00
69324;DHT22;56470;47.350;8.718;2023-09-12T03:02:09;22.28;67.01
69324;DHT22;56470;47.350;8.718;2023-09-12T03:04:35;22.26;67.27
69324;DHT22;56470;47.350;8.718;2023-09-12T03:07:01;22.28;67.27
69324;DHT22;56470;47.350;8.718;2023-09-12T03:09:26;22.26;67.30
69324;DHT22;56470;47.350;8.718;2023-09-12T03:11:51;22.26;67.31
69324;DHT22;56470;47.350;8.718;2023-09-12T03:14:17;22.30;67.40
69324;DHT22;56470;47.350;8.718;2023-09-12T03:16:45;22.28;67.14
69324;DHT22;56470;47.350;8.718;2023-09-12T03:19:10;22.25;67.25
69324;DHT22;56470;47.350;8.718;2023-09-12T03:21:35;22.22;67.36
69324;DHT22;56470;47.350;8.718;2023-09-12T03:24:00;22.19;67.22
69324;DHT22;56470;47.350;8.718;2023-09-12T03:26:26;22.15;67.32
69324;DHT22;56470;47.350;8.718;2023-09-12T03:28:51;22.12;67.48
69324;DHT22;56470;47.350;8.718;2023-09-12T03:31:18;22.13;67.53
69324;DHT22;56470;47.350;8.718;2023-09-12T03:33:44;22.13;67.50
69324;DHT22;56470;47.350;8.718;2023-09-12T03:36:16;22.19;67.59
69324;DHT22;56470;47.350;8.718;2023-09-12T03:38:42;22.22;67.44
69324;DHT22;56470;47.350;8.718;2023-09-12T03:41:08;22.28;67.28
69324;DHT22;56470;47.350;8.718;2023-09-12T03:43:33;22.29;67.21
69324;DHT22;56470;47.350;8.718;2023-09-12T03:45:59;22.28;67.20
69324;DHT22;56470;47.350;8.718;2023-09-12T03:48:24;22.26;67.22
69324;DHT22;56470;47.350;8.718;2023-09-12T03:50:57;22.23;67.11
69324;DHT22;56470;47.350;8.718;2023-09-12T03:53:22;22.20;67.19
69324;DHT22;56470;47.350;8.718;2023-09-12T03:55:47;22.16;67.25
69324;DHT22;56470;47.350;8.718;2023-09-12T03:58:13;22.10;67.42
69324;DHT22;56470;47.350;8.718;2023-09-12T04:00:38;22.10;67.44
69324;DHT22;56470;47.350;8.718;2023-09-12T04:03:03;22.10;67.33
69324;DHT22;56470;47.350;8.718;2023-09-12T04:05:29;22.05;67.47
69324;DHT22;56470;47.350;8.718;2023-09-12T04:07:54;22.04;67.57
69324;DHT22;56470;47.350;8.718;2023-09-12T04:10:20;22.01;67.56
69324;DHT22;56470;47.350;8.718;2023-09-12T04:12:45;21.99;67.55
69324;DHT22;56470;47.350;8.718;2023-09-12T04:15:11;21.97;67.45
69324;DHT22;56470;47.350;8.718;2023-09-12T04:17:36;21.92;67.65
69324;DHT22;56470;47.350;8.718;2023-09-12T04:20:01;21.89;67.58
69324;DHT22;56470;47.350;8.718;2023-09-12T04:22:27;21.88;67.56
69324;DHT22;56470;47.350;8.718;2023-09-12T04:24:53;21.87;67.57
69324;DHT22;56470;47.350;8.718;2023-09-12T04:27:19;21.84;67.50
69324;DHT22;56470;47.350;8.718;2023-09-12T04:29:44;21.82;67.49
69324;DHT22;56470;47.350;8.718;2023-09-12T04:32:11;21.81;67.63
69324;DHT22;56470;47.350;8.718;2023-09-12T04:34:36;21.68;67.66
69324;DHT22;56470;47.350;8.718;2023-09-12T04:37:02;21.49;68.03
69324;DHT22;56470;47.350;8.718;2023-09-12T04:39:28;21.37;68.35
69324;DHT22;56470;47.350;8.718;2023-09-12T04:41:53;21.23;68.63
69324;DHT22;56470;47.350;8.718;2023-09-12T04:44:18;21.13;68.85
69324;DHT22;56470;47.350;8.718;2023-09-12T04:46:43;21.05;69.19
69324;DHT22;56470;47.350;8.718;2023-09-12T04:49:09;21.01;69.38
69324;DHT22;56470;47.350;8.718;2023-09-12T04:51:34;20.96;69.49
69324;DHT22;56470;47.350;8.718;2023-09-12T04:53:59;20.91;69.72
69324;DHT22;56470;47.350;8.718;2023-09-12T04:56:25;20.85;69.92
69324;DHT22;56470;47.350;8.718;2023-09-12T04:58:50;20.85;69.92
69324;DHT22;56470;47.350;8.718;2023-09-12T05:01:16;20.82;69.78
69324;DHT22;56470;47.350;8.718;2023-09-12T05:03:42;20.78;69.95
69324;DHT22;56470;47.350;8.718;2023-09-12T05:06:07;20.77;69.93
69324;DHT22;56470;47.350;8.718;2023-09-12T05:08:32;20.77;69.99
69324;DHT22;56470;47.350;8.718;2023-09-12T05:10:58;20.78;70.09
69324;DHT22;56470;47.350;8.718;2023-09-12T05:13:23;20.82;70.10
69324;DHT22;56470;47.350;8.718;2023-09-12T05:15:48;20.90;70.16
69324;DHT22;56470;47.350;8.718;2023-09-12T05:18:14;20.96;70.06
69324;DHT22;56470;47.350;8.718;2023-09-12T05:20:39;21.08;70.04
69324;DHT22;56470;47.350;8.718;2023-09-12T05:23:04;21.13;69.77
69324;DHT22;56470;47.350;8.718;2023-09-12T05:25:30;21.22;69.69
69324;DHT22;56470;47.350;8.718;2023-09-12T05:27:56;21.32;69.44
69324;DHT22;56470;47.350;8.718;2023-09-12T05:30:22;21.35;69.24
69324;DHT22;56470;47.350;8.718;2023-09-12T05:32:47;21.40;69.17
69324;DHT22;56470;47.350;8.718;2023-09-12T05:35:12;21.50;69.11
69324;DHT22;56470;47.350;8.718;2023-09-12T05:37:37;21.51;68.99
69324;DHT22;56470;47.350;8.718;2023-09-12T05:40:03;21.54;68.90
69324;DHT22;56470;47.350;8.718;2023-09-12T05:42:29;21.55;68.80
69324;DHT22;56470;47.350;8.718;2023-09-12T05:44:54;21.60;68.80
69324;DHT22;56470;47.350;8.718;2023-09-12T05:47:20;21.57;68.66
69324;DHT22;56470;47.350;8.718;2023-09-12T05:49:46;21.57;68.76
69324;DHT22;56470;47.350;8.718;2023-09-12T05:52:11;21.60;68.82
69324;DHT22;56470;47.350;8.718;2023-09-12T05:54:38;21.70;68.75
69324;DHT22;56470;47.350;8.718;2023-09-12T05:57:04;21.81;68.60
69324;DHT22;56470;47.350;8.718;2023-09-12T05:59:30;21.89;68.30
69324;DHT22;56470;47.350;8.718;2023-09-12T06:01:55;21.97;68.08
69324;DHT22;56470;47.350;8.718;2023-09-12T06:04:21;22.05;67.90
69324;DHT22;56470;47.350;8.718;2023-09-12T06:06:46;22.09;67.83
69324;DHT22;56470;47.350;8.718;2023-09-12T06:09:12;22.22;67.67
69324;DHT22;56470;47.350;8.718;2023-09-12T06:11:37;22.32;67.51
69324;DHT22;56470;47.350;8.718;2023-09-12T06:14:02;22.47;67.23
69324;DHT22;56470;47.350;8.718;2023-09-12T06:16:28;22.59;66.96
69324;DHT22;56470;47.350;8.718;2023-09-12T06:18:54;22.71;66.70
69324;DHT22;56470;47.350;8.718;2023-09-12T06:21:20;22.81;66.49
69324;DHT22;56470;47.350;8.718;2023-09-12T06:23:47;22.90;66.34
69324;DHT22;56470;47.350;8.718;2023-09-12T06:26:12;22.99;66.16
69324;DHT22;56470;47.350;8.718;2023-09-12T06:28:38;23.12;65.83
69324;DHT22;56470;47.350;8.718;2023-09-12T06:31:03;23.24;65.61
69324;DHT22;56470;47.350;8.718;2023-09-12T06:33:28;23.45;65.27
69324;DHT22;56470;47.350;8.718;2023-09-12T06:35:54;23.63;65.02
69324;DHT22;56470;47.350;8.718;2023-09-12T06:38:20;23.85;64.64
69324;DHT22;56470;47.350;8.718;2023-09-12T06:40:45;24.06;64.11
69324;DHT22;56470;47.350;8.718;2023-09-12T06:43:12;24.29;63.57
69324;DHT22;56470;47.350;8.718;2023-09-12T06:45:38;24.47;62.97
69324;DHT22;56470;47.350;8.718;2023-09-12T06:48:04;24.60;62.53
69324;DHT22;56470;47.350;8.718;2023-09-12T06:50:29;24.70;62.39
69324;DHT22;56470;47.350;8.718;2023-09-12T06:52:55;24.91;62.03
69324;DHT22;56470;47.350;8.718;2023-09-12T06:55:20;25.15;61.57
69324;DHT22;56470;47.350;8.718;2023-09-12T06:57:45;25.33;60.93
69324;DHT22;56470;47.350;8.718;2023-09-12T07:00:12;25.51;60.63
69324;DHT22;56470;47.350;8.718;2023-09-12T07:02:37;25.64;60.37
69324;DHT22;56470;47.350;8.718;2023-09-12T07:05:03;25.81;59.92
69324;DHT22;56470;47.350;8.718;2023-09-12T07:07:30;25.95;59.30
69324;DHT22;56470;47.350;8.718;2023-09-12T07:09:56;26.06;59.13
69324;DHT22;56470;47.350;8.718;2023-09-12T07:12:21;26.12;58.97
69324;DHT22;56470;47.350;8.718;2023-09-12T07:14:46;26.04;58.94
69324;DHT22;56470;47.350;8.718;2023-09-12T07:17:12;26.08;59.02
69324;DHT22;56470;47.350;8.718;2023-09-12T07:19:37;26.26;58.56
69324;DHT22;56470;47.350;8.718;2023-09-12T07:22:02;26.32;58.20
69324;DHT22;56470;47.350;8.718;2023-09-12T07:24:28;26.40;58.05
69324;DHT22;56470;47.350;8.718;2023-09-12T07:26:53;26.46;57.71
69324;DHT22;56470;47.350;8.718;2023-09-12T07:29:19;26.50;57.60
69324;DHT22;56470;47.350;8.718;2023-09-12T07:31:44;26.61;57.53
69324;DHT22;56470;47.350;8.718;2023-09-12T07:34:09;26.80;57.48
69324;DHT22;56470;47.350;8.718;2023-09-12T07:36:37;26.99;56.98
69324;DHT22;56470;47.350;8.718;2023-09-12T07:39:02;27.12;56.60
69324;DHT22;56470;47.350;8.718;2023-09-12T07:41:29;27.18;56.44
69324;DHT22;56470;47.350;8.718;2023-09-12T07:43:54;27.18;56.53
69324;DHT22;56470;47.350;8.718;2023-09-12T07:46:20;27.32;56.18
69324;DHT22;56470;47.350;8.718;2023-09-12T07:48:45;27.26;56.24
69324;DHT22;56470;47.350;8.718;2023-09-12T07:51:14;27.36;56.11
69324;DHT22;56470;47.350;8.718;2023-09-12T07:53:40;27.51;55.90
69324;DHT22;56470;47.350;8.718;2023-09-12T07:56:07;27.67;55.51
69324;DHT22;56470;47.350;8.718;2023-09-12T07:58:35;27.61;55.20
69324;DHT22;56470;47.350;8.718;2023-09-12T08:01:07;27.49;54.44
69324;DHT22;56470;47.350;8.718;2023-09-12T08:03:34;27.36;54.90
69324;DHT22;56470;47.350;8.718;2023-09-12T08:06:00;27.26;55.14
69324;DHT22;56470;47.350;8.718;2023-09-12T08:08:25;27.40;54.71
69324;DHT22;56470;47.350;8.718;2023-09-12T08:10:51;27.46;54.87
69324;DHT22;56470;47.350;8.718;2023-09-12T08:13:16;27.46;54.28
69324;DHT22;56470;47.350;8.718;2023-09-12T08:15:41;27.54;54.33
69324;DHT22;56470;47.350;8.718;2023-09-12T08:18:06;27.70;54.28
69324;DHT22;56470;47.350;8.718;2023-09-12T08:20:32;27.81;53.82
69324;DHT22;56470;47.350;8.718;2023-09-12T08:22:57;28.00;54.01
69324;DHT22;56470;47.350;8.718;2023-09-12T08:25:23;28.29;53.10
69324;DHT22;56470;47.350;8.718;2023-09-12T08:27:49;28.40;52.80
69324;DHT22;56470;47.350;8.718;2023-09-12T08:30:15;28.60;52.74
69324;DHT22;56470;47.350;8.718;2023-09-12T08:32:41;28.86;52.28
69324;DHT22;56470;47.350;8.718;2023-09-12T08:35:10;28.90;51.96
69324;DHT22;56470;47.350;8.718;2023-09-12T08:37:36;28.92;52.04
69324;DHT22;56470;47.350;8.718;2023-09-12T08:40:01;28.80;52.16
69324;DHT22;56470;47.350;8.718;2023-09-12T08:42:27;28.87;52.32
69324;DHT22;56470;47.350;8.718;2023-09-12T08:44:55;29.15;51.98
69324;DHT22;56470;47.350;8.718;2023-09-12T08:47:23;29.36;51.77
69324;DHT22;56470;47.350;8.718;2023-09-12T08:49:49;29.67;51.26
69324;DHT22;56470;47.350;8.718;2023-09-12T08:52:14;29.94;50.38
69324;DHT22;56470;47.350;8.718;2023-09-12T08:54:39;30.15;50.17
69324;DHT22;56470;47.350;8.718;2023-09-12T08:57:05;30.39;49.60
69324;DHT22;56470;47.350;8.718;2023-09-12T08:59:33;30.43;48.84
69324;DHT22;56470;47.350;8.718;2023-09-12T09:02:00;30.40;48.76
69324;DHT22;56470;47.350;8.718;2023-09-12T09:04:28;30.35;48.90
69324;DHT22;56470;47.350;8.718;2023-09-12T09:06:57;30.53;48.62
69324;DHT22;56470;47.350;8.718;2023-09-12T09:09:23;30.55;47.68
69324;DHT22;56470;47.350;8.718;2023-09-12T09:11:49;30.50;47.44
69324;DHT22;56470;47.350;8.718;2023-09-12T09:14:15;30.08;47.07
69324;DHT22;56470;47.350;8.718;2023-09-12T09:16:40;29.91;47.48
69324;DHT22;56470;47.350;8.718;2023-09-12T09:19:06;30.02;47.27
69324;DHT22;56470;47.350;8.718;2023-09-12T09:21:35;30.21;46.83
69324;DHT22;56470;47.350;8.718;2023-09-12T09:24:03;30.40;46.43
69324;DHT22;56470;47.350;8.718;2023-09-12T09:26:43;30.61;45.35
69324;DHT22;56470;47.350;8.718;2023-09-12T09:29:12;30.66;45.74
69324;DHT22;56470;47.350;8.718;2023-09-12T09:31:41;30.42;45.59
69324;DHT22;56470;47.350;8.718;2023-09-12T09:34:15;30.18;45.28
69324;DHT22;56470;47.350;8.718;2023-09-12T09:36:47;29.90;46.59
69324;DHT22;56470;47.350;8.718;2023-09-12T09:39:13;30.05;46.67
69324;DHT22;56470;47.350;8.718;2023-09-12T09:41:39;30.25;46.44
69324;DHT22;56470;47.350;8.718;2023-09-12T09:44:07;30.43;46.08
69324;DHT22;56470;47.350;8.718;2023-09-12T09:46:33;30.64;45.86
69324;DHT22;56470;47.350;8.718;2023-09-12T09:48:58;30.81;45.53
69324;DHT22;56470;47.350;8.718;2023-09-12T09:51:25;30.90;45.28
69324;DHT22;56470;47.350;8.718;2023-09-12T09:53:51;30.97;45.06
69324;DHT22;56470;47.350;8.718;2023-09-12T09:56:17;31.11;44.80
69324;DHT22;56470;47.350;8.718;2023-09-12T09:58:55;31.14;43.96
69324;DHT22;56470;47.350;8.718;2023-09-12T10:01:27;31.08;44.34
69324;DHT22;56470;47.350;8.718;2023-09-12T10:03:57;31.23;44.02
69324;DHT22;56470;47.350;8.718;2023-09-12T10:06:38;31.35;43.68
69324;DHT22;56470;47.350;8.718;2023-09-12T10:09:42;31.38;43.55
69324;DHT22;56470;47.350;8.718;2023-09-12T10:12:22;31.51;43.44
69324;DHT22;56470;47.350;8.718;2023-09-12T10:25:47;31.65;43.26
69324;DHT22;56470;47.350;8.718;2023-09-12T10:28:14;31.66;42.46
69324;DHT22;56470;47.350;8.718;2023-09-12T10:30:40;31.62;41.74
69324;DHT22;56470;47.350;8.718;2023-09-12T10:33:06;31.59;40.88
69324;DHT22;56470;47.350;8.718;2023-09-12T10:35:32;31.56;40.56
69324;DHT22;56470;47.350;8.718;2023-09-12T10:38:02;31.46;39.98
69324;DHT22;56470;47.350;8.718;2023-09-12T10:40:31;31.49;40.57
69324;DHT22;56470;47.350;8.718;2023-09-12T10:42:59;31.54;40.41
69324;DHT22;56470;47.350;8.718;2023-09-12T10:45:26;31.60;41.24
69324;DHT22;56470;47.350;8.718;2023-09-12T10:47:52;31.69;41.45
69324;DHT22;56470;47.350;8.718;2023-09-12T10:50:19;31.69;41.80
69324;DHT22;56470;47.350;8.718;2023-09-12T10:52:45;31.60;41.91
69324;DHT22;56470;47.350;8.718;2023-09-12T10:55:16;31.66;41.79
69324;DHT22;56470;47.350;8.718;2023-09-12T10:58:01;31.77;41.53
69324;DHT22;56470;47.350;8.718;2023-09-12T11:00:27;31.85;41.84
69324;DHT22;56470;47.350;8.718;2023-09-12T11:02:53;31.94;41.40
69324;DHT22;56470;47.350;8.718;2023-09-12T11:07:57;31.94;41.30
69324;DHT22;56470;47.350;8.718;2023-09-12T11:10:23;31.88;41.27
69324;DHT22;56470;47.350;8.718;2023-09-12T11:12:54;31.77;41.16
69324;DHT22;56470;47.350;8.718;2023-09-12T11:15:21;31.72;40.95
69324;DHT22;56470;47.350;8.718;2023-09-12T11:17:48;31.67;40.87
69324;DHT22;56470;47.350;8.718;2023-09-12T11:20:15;31.54;41.09
69324;DHT22;56470;47.350;8.718;2023-09-12T11:22:44;31.35;41.53
69324;DHT22;56470;47.350;8.718;2023-09-12T11:25:17;31.35;41.26
69324;DHT22;56470;47.350;8.718;2023-09-12T11:30:16;31.29;41.91
69324;DHT22;56470;47.350;8.718;2023-09-12T11:32:45;31.29;41.91
69324;DHT22;56470;47.350;8.718;2023-09-12T11:35:11;31.22;41.85
69324;DHT22;56470;47.350;8.718;2023-09-12T11:37:36;31.18;42.04
69324;DHT22;56470;47.350;8.718;2023-09-12T11:40:15;31.19;41.31
69324;DHT22;56470;47.350;8.718;2023-09-12T11:42:42;31.28;41.87
69324;DHT22;56470;47.350;8.718;2023-09-12T11:45:09;31.22;41.79
69324;DHT22;56470;47.350;8.718;2023-09-12T11:47:40;31.22;41.91
69324;DHT22;56470;47.350;8.718;2023-09-12T11:50:06;31.26;42.11
69324;DHT22;56470;47.350;8.718;2023-09-12T11:52:36;31.32;41.92
69324;DHT22;56470;47.350;8.718;2023-09-12T11:55:02;31.32;41.96
69324;DHT22;56470;47.350;8.718;2023-09-12T11:57:28;31.26;41.82
69324;DHT22;56470;47.350;8.718;2023-09-12T11:59:55;31.19;41.90
69324;DHT22;56470;47.350;8.718;2023-09-12T12:02:21;31.15;42.00
69324;DHT22;56470;47.350;8.718;2023-09-12T12:04:46;31.11;42.03
69324;DHT22;56470;47.350;8.718;2023-09-12T12:07:12;31.10;42.14
69324;DHT22;56470;47.350;8.718;2023-09-12T12:09:38;31.18;42.06
69324;DHT22;56470;47.350;8.718;2023-09-12T12:14:33;31.23;42.05
69324;DHT22;56470;47.350;8.718;2023-09-12T12:17:05;31.26;42.05
69324;DHT22;56470;47.350;8.718;2023-09-12T12:19:30;31.15;42.17
69324;DHT22;56470;47.350;8.718;2023-09-12T12:21:56;31.04;42.53
69324;DHT22;56470;47.350;8.718;2023-09-12T12:24:21;31.02;42.68
69324;DHT22;56470;47.350;8.718;2023-09-12T12:26:46;30.92;42.73
69324;DHT22;56470;47.350;8.718;2023-09-12T12:29:12;30.83;42.96
69324;DHT22;56470;47.350;8.718;2023-09-12T12:31:38;30.78;43.24
69324;DHT22;56470;47.350;8.718;2023-09-12T12:34:05;30.71;43.29
69324;DHT22;56470;47.350;8.718;2023-09-12T12:36:30;30.69;43.51
69324;DHT22;56470;47.350;8.718;2023-09-12T12:38:55;30.67;43.58
69324;DHT22;56470;47.350;8.718;2023-09-12T12:41:26;30.64;43.48
69324;DHT22;56470;47.350;8.718;2023-09-12T12:43:52;30.61;43.93
69324;DHT22;56470;47.350;8.718;2023-09-12T12:46:17;30.59;43.91
69324;DHT22;56470;47.350;8.718;2023-09-12T12:48:44;30.59;43.98
69324;DHT22;56470;47.350;8.718;2023-09-12T12:51:20;30.57;43.98
69324;DHT22;56470;47.350;8.718;2023-09-12T12:53:49;30.59;44.37
69324;DHT22;56470;47.350;8.718;2023-09-12T12:56:17;30.55;44.50
69324;DHT22;56470;47.350;8.718;2023-09-12T12:58:57;30.52;44.48
69324;DHT22;56470;47.350;8.718;2023-09-12T13:01:24;30.59;44.61
69324;DHT22;56470;47.350;8.718;2023-09-12T13:03:50;30.57;44.61
69324;DHT22;56470;47.350;8.718;2023-09-12T13:06:16;30.60;44.51
69324;DHT22;56470;47.350;8.718;2023-09-12T13:08:43;30.59;44.58
69324;DHT22;56470;47.350;8.718;2023-09-12T13:11:09;30.55;44.53
69324;DHT22;56470;47.350;8.718;2023-09-12T13:13:36;30.49;44.59
69324;DHT22;56470;47.350;8.718;2023-09-12T13:16:03;30.47;44.63
69324;DHT22;56470;47.350;8.718;2023-09-12T13:18:33;30.42;44.69
69324;DHT22;56470;47.350;8.718;2023-09-12T13:20:59;30.39;44.67
69324;DHT22;56470;47.350;8.718;2023-09-12T13:23:24;30.28;44.78
69324;DHT22;56470;47.350;8.718;2023-09-12T13:25:50;30.07;45.58
69324;DHT22;56470;47.350;8.718;2023-09-12T13:28:16;29.88;46.38
69324;DHT22;56470;47.350;8.718;2023-09-12T13:30:41;29.71;47.00
69324;DHT22;56470;47.350;8.718;2023-09-12T13:33:07;29.56;47.52
69324;DHT22;56470;47.350;8.718;2023-09-12T13:35:32;29.42;47.94
69324;DHT22;56470;47.350;8.718;2023-09-12T13:37:57;29.30;48.36
69324;DHT22;56470;47.350;8.718;2023-09-12T13:40:23;29.19;48.71
69324;DHT22;56470;47.350;8.718;2023-09-12T13:42:48;29.12;48.91
69324;DHT22;56470;47.350;8.718;2023-09-12T13:45:13;29.07;49.40
69324;DHT22;56470;47.350;8.718;2023-09-12T13:47:39;28.95;49.66
69324;DHT22;56470;47.350;8.718;2023-09-12T13:50:06;28.81;49.75
69324;DHT22;56470;47.350;8.718;2023-09-12T13:52:32;28.50;49.82
69324;DHT22;56470;47.350;8.718;2023-09-12T13:54:57;28.33;50.11
69324;DHT22;56470;47.350;8.718;2023-09-12T13:57:22;28.25;50.09
69324;DHT22;56470;47.350;8.718;2023-09-12T13:59:48;28.18;50.32
69324;DHT22;56470;47.350;8.718;2023-09-12T14:02:13;28.01;50.93
69324;DHT22;56470;47.350;8.718;2023-09-12T14:04:38;27.84;51.42
69324;DHT22;56470;47.350;8.718;2023-09-12T14:07:05;27.76;51.45
69324;DHT22;56470;47.350;8.718;2023-09-12T14:09:30;27.63;51.60
69324;DHT22;56470;47.350;8.718;2023-09-12T14:11:58;27.42;50.12
69324;DHT22;56470;47.350;8.718;2023-09-12T14:14:25;27.16;49.59
69324;DHT22;56470;47.350;8.718;2023-09-12T14:16:51;26.91;48.99
69324;DHT22;56470;47.350;8.718;2023-09-12T14:19:16;26.74;48.52
69324;DHT22;56470;47.350;8.718;2023-09-12T14:21:41;26.60;47.96
69324;DHT22;56470;47.350;8.718;2023-09-12T14:24:09;26.35;47.39
69324;DHT22;56470;47.350;8.718;2023-09-12T14:26:34;26.28;47.43
69324;DHT22;56470;47.350;8.718;2023-09-12T14:28:59;26.24;47.09
69324;DHT22;56470;47.350;8.718;2023-09-12T14:31:25;26.16;46.89
69324;DHT22;56470;47.350;8.718;2023-09-12T14:33:50;26.09;46.94
69324;DHT22;56470;47.350;8.718;2023-09-12T14:36:17;26.16;46.89
69324;DHT22;56470;47.350;8.718;2023-09-12T14:38:42;26.09;46.79
69324;DHT22;56470;47.350;8.718;2023-09-12T14:41:11;25.97;46.76
69324;DHT22;56470;47.350;8.718;2023-09-12T14:43:37;25.94;47.02
69324;DHT22;56470;47.350;8.718;2023-09-12T14:46:02;26.01;47.26
69324;DHT22;56470;47.350;8.718;2023-09-12T14:48:29;26.11;47.14
69324;DHT22;56470;47.350;8.718;2023-09-12T14:50:56;26.16;47.12
69324;DHT22;56470;47.350;8.718;2023-09-12T14:53:21;26.24;47.14
69324;DHT22;56470;47.350;8.718;2023-09-12T14:55:46;26.32;47.14
69324;DHT22;56470;47.350;8.718;2023-09-12T14:58:12;26.36;47.30
69324;DHT22;56470;47.350;8.718;2023-09-12T15:00:37;26.42;47.60
69324;DHT22;56470;47.350;8.718;2023-09-12T15:03:03;26.50;47.73
69324;DHT22;56470;47.350;8.718;2023-09-12T15:05:29;26.50;47.66
69324;DHT22;56470;47.350;8.718;2023-09-12T15:07:54;26.42;46.98
69324;DHT22;56470;47.350;8.718;2023-09-12T15:10:19;26.37;47.20
69324;DHT22;56470;47.350;8.718;2023-09-12T15:12:45;26.40;46.91
69324;DHT22;56470;47.350;8.718;2023-09-12T15:15:10;26.40;46.67
69324;DHT22;56470;47.350;8.718;2023-09-12T15:17:36;26.33;46.70
69324;DHT22;56470;47.350;8.718;2023-09-12T15:20:01;26.37;46.92
69324;DHT22;56470;47.350;8.718;2023-09-12T15:22:30;26.40;46.93
69324;DHT22;56470;47.350;8.718;2023-09-12T15:24:55;26.39;46.87
69324;DHT22;56470;47.350;8.718;2023-09-12T15:27:21;26.42;47.30
69324;DHT22;56470;47.350;8.718;2023-09-12T15:29:46;26.53;47.56
69324;DHT22;56470;47.350;8.718;2023-09-12T15:32:11;26.53;47.80
69324;DHT22;56470;47.350;8.718;2023-09-12T15:34:37;26.53;47.99
69324;DHT22;56470;47.350;8.718;2023-09-12T15:37:11;26.50;48.67
69324;DHT22;56470;47.350;8.718;2023-09-12T15:39:37;26.44;48.73
69324;DHT22;56470;47.350;8.718;2023-09-12T15:42:03;26.37;49.29
69324;DHT22;56470;47.350;8.718;2023-09-12T15:44:28;26.32;48.96